sensor_id;sensor_type;location;lat;lon;timestamp;pressure;altitude;pressure_sealevel;temperature;humidity
72116;BME280;59991;52.140;5.428;2023-02-19T00:00:30;101752.06;;;9.22;100.00
72116;BME280;59991;52.140;5.428;2023-02-19T00:01:09;101748.53;;;9.22;100.00
72116;BME280;59991;52.140;5.428;2023-02-19T00:01:43;101751.25;;;9.22;100.00
72116;BME280;59991;52.140;5.428;2023-02-19T00:02:15;101752.84;;;9.23;100.00
72116;BME280;59991;52.140;5.428;2023-02-19T00:02:46;101747.41;;;9.23;100.00
72116;BME280;59991;52.140;5.428;2023-02-19T00:03:18;101746.97;;;9.21;100.00
72116;BME280;59991;52.140;5.428;2023-02-19T00:03:54;101748.53;;;9.22;100.00
72116;BME280;59991;52.140;5.428;2023-02-19T00:04:26;101745.03;;;9.21;100.00
72116;BME280;59991;52.140;5.428;2023-02-19T00:04:57;101747.28;;;9.19;100.00
72116;BME280;59991;52.140;5.428;2023-02-19T00:05:29;101746.97;;;9.21;100.00
72116;BME280;59991;52.140;5.428;2023-02-19T00:06:02;101750.47;;;9.21;100.00
72116;BME280;59991;52.140;5.428;2023-02-19T00:06:34;101754.00;;;9.22;100.00
72116;BME280;59991;52.140;5.428;2023-02-19T00:07:06;101748.53;;;9.22;100.00
72116;BME280;59991;52.140;5.428;2023-02-19T00:07:37;101750.47;;;9.21;100.00
72116;BME280;59991;52.140;5.428;2023-02-19T00:08:09;101750.81;;;9.20;100.00
72116;BME280;59991;52.140;5.428;2023-02-19T00:08:40;101757.06;;;9.20;100.00
72116;BME280;59991;52.140;5.428;2023-02-19T00:09:13;101754.31;;;9.20;100.00
72116;BME280;59991;52.140;5.428;2023-02-19T00:09:45;101748.09;;;9.20;100.00
72116;BME280;59991;52.140;5.428;2023-02-19T00:10:17;101753.53;;;9.20;100.00
72116;BME280;59991;52.140;5.428;2023-02-19T00:10:48;101761.69;;;9.20;100.00
72116;BME280;59991;52.140;5.428;2023-02-19T00:11:22;101758.63;;;9.21;100.00
72116;BME280;59991;52.140;5.428;2023-02-19T00:11:54;101753.53;;;9.20;100.00
72116;BME280;59991;52.140;5.428;2023-02-19T00:12:26;101752.41;;;9.21;100.00
72116;BME280;59991;52.140;5.428;2023-02-19T00:12:57;101756.25;;;9.20;100.00
72116;BME280;59991;52.140;5.428;2023-02-19T00:13:29;101755.13;;;9.21;100.00
72116;BME280;59991;52.140;5.428;2023-02-19T00:14:01;101758.97;;;9.20;100.00
72116;BME280;59991;52.140;5.428;2023-02-19T00:14:33;101757.84;;;9.21;100.00
72116;BME280;59991;52.140;5.428;2023-02-19T00:15:05;101753.53;;;9.20;100.00
72116;BME280;59991;52.140;5.428;2023-02-19T00:15:36;101759.78;;;9.20;100.00
72116;BME280;59991;52.140;5.428;2023-02-19T00:16:09;101750.81;;;9.20;100.00
72116;BME280;59991;52.140;5.428;2023-02-19T00:16:42;101748.09;;;9.20;100.00
72116;BME280;59991;52.140;5.428;2023-02-19T00:17:13;101751.59;;;9.20;100.00
72116;BME280;59991;52.140;5.428;2023-02-19T00:17:45;101748.09;;;9.20;100.00
72116;BME280;59991;52.140;5.428;2023-02-19T00:18:16;101752.75;;;9.19;100.00
72116;BME280;59991;52.140;5.428;2023-02-19T00:18:48;101750.03;;;9.19;100.00
72116;BME280;59991;52.140;5.428;2023-02-19T00:19:20;101755.81;;;9.18;100.00
72116;BME280;59991;52.140;5.428;2023-02-19T00:19:51;101756.59;;;9.18;100.00
72116;BME280;59991;52.140;5.428;2023-02-19T00:20:23;101755.00;;;9.17;100.00
72116;BME280;59991;52.140;5.428;2023-02-19T00:20:55;101760.78;;;9.16;100.00
72116;BME280;59991;52.140;5.428;2023-02-19T00:21:27;101748.31;;;9.15;100.00
72116;BME280;59991;52.140;5.428;2023-02-19T00:21:59;101763.63;;;9.19;100.00
72116;BME280;59991;52.140;5.428;2023-02-19T00:22:30;101754.66;;;9.19;100.00
72116;BME280;59991;52.140;5.428;2023-02-19T00:23:01;101757.41;;;9.19;100.00
72116;BME280;59991;52.140;5.428;2023-02-19T00:23:33;101761.25;;;9.18;100.00
72116;BME280;59991;52.140;5.428;2023-02-19T00:24:06;101760.13;;;9.19;100.00
72116;BME280;59991;52.140;5.428;2023-02-19T00:24:37;101760.78;;;9.16;100.00
72116;BME280;59991;52.140;5.428;2023-02-19T00:25:09;101761.25;;;9.18;100.00
72116;BME280;59991;52.140;5.428;2023-02-19T00:25:40;101755.00;;;9.17;100.00
72116;BME280;59991;52.140;5.428;2023-02-19T00:26:12;101765.91;;;9.17;100.00
72116;BME280;59991;52.140;5.428;2023-02-19T00:26:49;101751.50;;;9.17;100.00
72116;BME280;59991;52.140;5.428;2023-02-19T00:27:20;101762.38;;;9.17;100.00
72116;BME280;59991;52.140;5.428;2023-02-19T00:27:51;101765.09;;;9.17;100.00
72116;BME280;59991;52.140;5.428;2023-02-19T00:28:23;101766.69;;;9.18;100.00
72116;BME280;59991;52.140;5.428;2023-02-19T00:28:55;101766.69;;;9.18;100.00
72116;BME280;59991;52.140;5.428;2023-02-19T00:29:27;101765.09;;;9.17;100.00
72116;BME280;59991;52.140;5.428;2023-02-19T00:29:58;101763.97;;;9.18;100.00
72116;BME280;59991;52.140;5.428;2023-02-19T00:30:30;101768.63;;;9.17;100.00
72116;BME280;59991;52.140;5.428;2023-02-19T00:31:05;101759.66;;;9.17;100.00
72116;BME280;59991;52.140;5.428;2023-02-19T00:31:37;101767.81;;;9.17;100.00
72116;BME280;59991;52.140;5.428;2023-02-19T00:32:08;101771.34;;;9.17;100.00
72116;BME280;59991;52.140;5.428;2023-02-19T00:32:40;101777.56;;;9.18;100.00
72116;BME280;59991;52.140;5.428;2023-02-19T00:33:11;101776.00;;;9.17;100.00
72116;BME280;59991;52.140;5.428;2023-02-19T00:33:43;101761.59;;;9.16;100.00
72116;BME280;59991;52.140;5.428;2023-02-19T00:34:15;101766.25;;;9.16;100.00
72116;BME280;59991;52.140;5.428;2023-02-19T00:34:46;101771.69;;;9.16;100.00
72116;BME280;59991;52.140;5.428;2023-02-19T00:35:18;101774.41;;;9.16;100.00
72116;BME280;59991;52.140;5.428;2023-02-19T00:35:49;101764.31;;;9.16;100.00
72116;BME280;59991;52.140;5.428;2023-02-19T00:36:21;101767.03;;;9.16;100.00
72116;BME280;59991;52.140;5.428;2023-02-19T00:36:53;101771.69;;;9.16;100.00
72116;BME280;59991;52.140;5.428;2023-02-19T00:37:24;101763.53;;;9.16;100.00
72116;BME280;59991;52.140;5.428;2023-02-19T00:37:55;101763.53;;;9.16;100.00
72116;BME280;59991;52.140;5.428;2023-02-19T00:38:27;101766.69;;;9.18;100.00
72116;BME280;59991;52.140;5.428;2023-02-19T00:38:59;101760.78;;;9.16;100.00
72116;BME280;59991;52.140;5.428;2023-02-19T00:39:30;101764.31;;;9.16;100.00
72116;BME280;59991;52.140;5.428;2023-02-19T00:40:02;101762.38;;;9.17;100.00
72116;BME280;59991;52.140;5.428;2023-02-19T00:40:33;101760.78;;;9.16;100.00
72116;BME280;59991;52.140;5.428;2023-02-19T00:41:05;101765.09;;;9.17;100.00
72116;BME280;59991;52.140;5.428;2023-02-19T00:41:49;101766.69;;;9.18;100.00
72116;BME280;59991;52.140;5.428;2023-02-19T00:42:20;101763.53;;;9.16;100.00
72116;BME280;59991;52.140;5.428;2023-02-19T00:42:52;101773.28;;;9.17;100.00
72116;BME280;59991;52.140;5.428;2023-02-19T00:43:23;101772.47;;;9.16;100.00
72116;BME280;59991;52.140;5.428;2023-02-19T00:43:56;101770.53;;;9.17;100.00
72116;BME280;59991;52.140;5.428;2023-02-19T00:44:28;101759.56;;;9.13;100.00
72116;BME280;59991;52.140;5.428;2023-02-19T00:45:00;101769.41;;;9.18;100.00
72116;BME280;59991;52.140;5.428;2023-02-19T00:45:31;101764.31;;;9.16;100.00
72116;BME280;59991;52.140;5.428;2023-02-19T00:46:05;101770.88;;;9.15;100.00
72116;BME280;59991;52.140;5.428;2023-02-19T00:46:39;101769.75;;;9.16;100.00
72116;BME280;59991;52.140;5.428;2023-02-19T00:47:11;101765.09;;;9.17;100.00
72116;BME280;59991;52.140;5.428;2023-02-19T00:47:42;101774.84;;;9.18;100.00
72116;BME280;59991;52.140;5.428;2023-02-19T00:48:14;101760.47;;;9.17;100.00
72116;BME280;59991;52.140;5.428;2023-02-19T00:48:46;101765.44;;;9.15;100.00
72116;BME280;59991;52.140;5.428;2023-02-19T00:49:21;101769.41;;;9.18;100.00
72116;BME280;59991;52.140;5.428;2023-02-19T00:49:53;101778.38;;;9.18;100.00
72116;BME280;59991;52.140;5.428;2023-02-19T00:50:24;101774.41;;;9.16;100.00
72116;BME280;59991;52.140;5.428;2023-02-19T00:50:56;101774.84;;;9.18;100.00
72116;BME280;59991;52.140;5.428;2023-02-19T00:51:30;101777.56;;;9.18;100.00
72116;BME280;59991;52.140;5.428;2023-02-19T00:52:02;101767.03;;;9.16;100.00
72116;BME280;59991;52.140;5.428;2023-02-19T00:52:34;101777.56;;;9.18;100.00
72116;BME280;59991;52.140;5.428;2023-02-19T00:53:05;101772.94;;;9.18;100.00
72116;BME280;59991;52.140;5.428;2023-02-19T00:53:36;101768.63;;;9.17;100.00
72116;BME280;59991;52.140;5.428;2023-02-19T00:54:09;101776.00;;;9.17;100.00
72116;BME280;59991;52.140;5.428;2023-02-19T00:54:41;101773.28;;;9.17;100.00
72116;BME280;59991;52.140;5.428;2023-02-19T00:55:12;101779.50;;;9.17;100.00
72116;BME280;59991;52.140;5.428;2023-02-19T00:55:43;101763.97;;;9.18;100.00
72116;BME280;59991;52.140;5.428;2023-02-19T00:56:15;101770.22;;;9.18;100.00
72116;BME280;59991;52.140;5.428;2023-02-19T00:56:47;101765.56;;;9.19;100.00
72116;BME280;59991;52.140;5.428;2023-02-19T00:57:18;101765.09;;;9.17;100.00
72116;BME280;59991;52.140;5.428;2023-02-19T00:57:50;101762.03;;;9.18;100.00
72116;BME280;59991;52.140;5.428;2023-02-19T00:58:21;101764.31;;;9.16;100.00
72116;BME280;59991;52.140;5.428;2023-02-19T00:58:53;101768.63;;;9.17;100.00
72116;BME280;59991;52.140;5.428;2023-02-19T00:59:24;101771.00;;;9.19;100.00
72116;BME280;59991;52.140;5.428;2023-02-19T00:59:56;101768.63;;;9.17;100.00
72116;BME280;59991;52.140;5.428;2023-02-19T01:00:27;101771.00;;;9.19;100.00
72116;BME280;59991;52.140;5.428;2023-02-19T01:00:59;101763.97;;;9.18;100.00
72116;BME280;59991;52.140;5.428;2023-02-19T01:01:30;101772.13;;;9.18;100.00
72116;BME280;59991;52.140;5.428;2023-02-19T01:02:02;101772.94;;;9.18;100.00
72116;BME280;59991;52.140;5.428;2023-02-19T01:02:33;101766.69;;;9.18;100.00
72116;BME280;59991;52.140;5.428;2023-02-19T01:03:05;101781.09;;;9.18;100.00
72116;BME280;59991;52.140;5.428;2023-02-19T01:03:37;101762.03;;;9.18;100.00
72116;BME280;59991;52.140;5.428;2023-02-19T01:04:09;101767.81;;;9.17;100.00
72116;BME280;59991;52.140;5.428;2023-02-19T01:04:40;101773.72;;;9.19;100.00
72116;BME280;59991;52.140;5.428;2023-02-19T01:05:12;101776.00;;;9.17;100.00
72116;BME280;59991;52.140;5.428;2023-02-19T01:05:43;101777.56;;;9.18;100.00
72116;BME280;59991;52.140;5.428;2023-02-19T01:06:17;101775.19;;;9.16;100.00
72116;BME280;59991;52.140;5.428;2023-02-19T01:06:49;101773.28;;;9.17;100.00
72116;BME280;59991;52.140;5.428;2023-02-19T01:07:20;101781.44;;;9.17;100.00
72116;BME280;59991;52.140;5.428;2023-02-19T01:07:52;101779.84;;;9.16;100.00
72116;BME280;59991;52.140;5.428;2023-02-19T01:08:23;101780.63;;;9.16;100.00
72116;BME280;59991;52.140;5.428;2023-02-19T01:08:55;101776.34;;;9.15;100.00
72116;BME280;59991;52.140;5.428;2023-02-19T01:09:26;101784.50;;;9.15;100.00
72116;BME280;59991;52.140;5.428;2023-02-19T01:09:58;101788.00;;;9.16;100.00
72116;BME280;59991;52.140;5.428;2023-02-19T01:10:29;101779.84;;;9.16;100.00
72116;BME280;59991;52.140;5.428;2023-02-19T01:11:02;101784.84;;;9.14;100.00
72116;BME280;59991;52.140;5.428;2023-02-19T01:11:34;101779.84;;;9.16;100.00
72116;BME280;59991;52.140;5.428;2023-02-19T01:12:05;101789.59;;;9.17;100.00
72116;BME280;59991;52.140;5.428;2023-02-19T01:12:37;101785.75;;;9.18;100.00
72116;BME280;59991;52.140;5.428;2023-02-19T01:13:09;101788.00;;;9.16;100.00
72116;BME280;59991;52.140;5.428;2023-02-19T01:13:41;101787.66;;;9.17;100.00
72116;BME280;59991;52.140;5.428;2023-02-19T01:14:13;101788.47;;;9.18;100.00
72116;BME280;59991;52.140;5.428;2023-02-19T01:14:44;101788.81;;;9.16;100.00
72116;BME280;59991;52.140;5.428;2023-02-19T01:15:16;101783.69;;;9.15;100.00
72116;BME280;59991;52.140;5.428;2023-02-19T01:15:47;101796.16;;;9.16;100.00
72116;BME280;59991;52.140;5.428;2023-02-19T01:16:21;101785.19;;;9.12;100.00
72116;BME280;59991;52.140;5.428;2023-02-19T01:16:54;101789.16;;;9.15;100.00
72116;BME280;59991;52.140;5.428;2023-02-19T01:17:26;101790.63;;;9.12;100.00
72116;BME280;59991;52.140;5.428;2023-02-19T01:17:57;101801.63;;;9.16;100.00
72116;BME280;59991;52.140;5.428;2023-02-19T01:18:29;101789.94;;;9.15;100.00
72116;BME280;59991;52.140;5.428;2023-02-19T01:19:01;101796.97;;;9.16;100.00
72116;BME280;59991;52.140;5.428;2023-02-19T01:19:33;101792.66;;;9.15;100.00
72116;BME280;59991;52.140;5.428;2023-02-19T01:20:04;101793.78;;;9.14;100.00
72116;BME280;59991;52.140;5.428;2023-02-19T01:20:43;101794.59;;;9.15;100.00
72116;BME280;59991;52.140;5.428;2023-02-19T01:21:17;101796.16;;;9.16;100.00
72116;BME280;59991;52.140;5.428;2023-02-19T01:21:48;101794.94;;;9.13;100.00
72116;BME280;59991;52.140;5.428;2023-02-19T01:22:20;101791.88;;;9.15;100.00
72116;BME280;59991;52.140;5.428;2023-02-19T01:22:51;101800.03;;;9.15;100.00
72116;BME280;59991;52.140;5.428;2023-02-19T01:23:23;101796.06;;;9.12;100.00
72116;BME280;59991;52.140;5.428;2023-02-19T01:23:56;101801.16;;;9.14;100.00
72116;BME280;59991;52.140;5.428;2023-02-19T01:24:28;101797.53;;;9.10;100.00
72116;BME280;59991;52.140;5.428;2023-02-19T01:24:59;101794.03;;;9.09;100.00
72116;BME280;59991;52.140;5.428;2023-02-19T01:25:30;101796.06;;;9.12;100.00
72116;BME280;59991;52.140;5.428;2023-02-19T01:26:06;101804.22;;;9.12;100.00
72116;BME280;59991;52.140;5.428;2023-02-19T01:26:38;101798.00;;;9.12;100.00
72116;BME280;59991;52.140;5.428;2023-02-19T01:27:10;101789.81;;;9.12;100.00
72116;BME280;59991;52.140;5.428;2023-02-19T01:27:42;101806.16;;;9.12;100.00
72116;BME280;59991;52.140;5.428;2023-02-19T01:28:13;101795.28;;;9.12;100.00
72116;BME280;59991;52.140;5.428;2023-02-19T01:28:44;101798.00;;;9.12;100.00
72116;BME280;59991;52.140;5.428;2023-02-19T01:29:16;101799.13;;;9.11;100.00
72116;BME280;59991;52.140;5.428;2023-02-19T01:29:48;101804.56;;;9.11;100.00
72116;BME280;59991;52.140;5.428;2023-02-19T01:30:19;101797.53;;;9.10;100.00
72116;BME280;59991;52.140;5.428;2023-02-19T01:30:50;101796.41;;;9.11;100.00
72116;BME280;59991;52.140;5.428;2023-02-19T01:31:23;101808.41;;;9.10;100.00
72116;BME280;59991;52.140;5.428;2023-02-19T01:31:54;101804.56;;;9.11;100.00
72116;BME280;59991;52.140;5.428;2023-02-19T01:32:26;101793.22;;;9.09;100.00
72116;BME280;59991;52.140;5.428;2023-02-19T01:32:58;101801.41;;;9.09;100.00
72116;BME280;59991;52.140;5.428;2023-02-19T01:33:29;101803.78;;;9.10;100.00
72116;BME280;59991;52.140;5.428;2023-02-19T01:34:02;101810.00;;;9.11;100.00
72116;BME280;59991;52.140;5.428;2023-02-19T01:34:34;101807.63;;;9.09;100.00
72116;BME280;59991;52.140;5.428;2023-02-19T01:35:05;101799.81;;;9.08;100.00
72116;BME280;59991;52.140;5.428;2023-02-19T01:35:38;101804.44;;;9.07;100.00
72116;BME280;59991;52.140;5.428;2023-02-19T01:36:10;101799.47;;;9.09;100.00
72116;BME280;59991;52.140;5.428;2023-02-19T01:36:42;101805.25;;;9.08;100.00
72116;BME280;59991;52.140;5.428;2023-02-19T01:37:13;101802.53;;;9.08;100.00
72116;BME280;59991;52.140;5.428;2023-02-19T01:37:44;101802.53;;;9.08;100.00
72116;BME280;59991;52.140;5.428;2023-02-19T01:38:16;101800.47;;;9.05;100.00
72116;BME280;59991;52.140;5.428;2023-02-19T01:38:47;101804.78;;;9.06;100.00
72116;BME280;59991;52.140;5.428;2023-02-19T01:39:19;101800.47;;;9.05;100.00
72116;BME280;59991;52.140;5.428;2023-02-19T01:39:51;101805.16;;;9.04;100.00
72116;BME280;59991;52.140;5.428;2023-02-19T01:40:22;101804.38;;;9.04;100.00
72116;BME280;59991;52.140;5.428;2023-02-19T01:40:55;101804.38;;;9.04;100.00
72116;BME280;59991;52.140;5.428;2023-02-19T01:41:27;101802.78;;;9.03;100.00
72116;BME280;59991;52.140;5.428;2023-02-19T01:41:58;101798.13;;;9.03;100.00
72116;BME280;59991;52.140;5.428;2023-02-19T01:42:30;101808.22;;;9.03;100.00
72116;BME280;59991;52.140;5.428;2023-02-19T01:43:01;101806.63;;;9.02;100.00
72116;BME280;59991;52.140;5.428;2023-02-19T01:45:17;101799.63;;;9.00;100.00
72116;BME280;59991;52.140;5.428;2023-02-19T01:45:51;101796.44;;;8.98;100.00
72116;BME280;59991;52.140;5.428;2023-02-19T01:46:31;101800.41;;;9.01;100.00
72116;BME280;59991;52.140;5.428;2023-02-19T01:47:03;101807.78;;;9.00;100.00
72116;BME280;59991;52.140;5.428;2023-02-19T01:47:35;101807.44;;;9.02;100.00
72116;BME280;59991;52.140;5.428;2023-02-19T01:48:19;101809.34;;;9.02;100.00
72116;BME280;59991;52.140;5.428;2023-02-19T01:48:54;101811.28;;;9.01;100.00
72116;BME280;59991;52.140;5.428;2023-02-19T01:49:39;101807.78;;;9.00;100.00
72116;BME280;59991;52.140;5.428;2023-02-19T01:50:19;101808.56;;;9.01;100.00
72116;BME280;59991;52.140;5.428;2023-02-19T01:50:57;101814.00;;;9.01;100.00
72116;BME280;59991;52.140;5.428;2023-02-19T01:51:32;101810.84;;;8.99;100.00
72116;BME280;59991;52.140;5.428;2023-02-19T01:52:19;101806.97;;;9.00;100.00
72116;BME280;59991;52.140;5.428;2023-02-19T01:52:51;101806.19;;;8.99;100.00
72116;BME280;59991;52.140;5.428;2023-02-19T01:53:27;101802.66;;;8.99;100.00
72116;BME280;59991;52.140;5.428;2023-02-19T01:54:03;101813.56;;;8.99;100.00
72116;BME280;59991;52.140;5.428;2023-02-19T01:54:36;101808.91;;;8.99;100.00
72116;BME280;59991;52.140;5.428;2023-02-19T01:55:11;101811.16;;;8.97;100.00
72116;BME280;59991;52.140;5.428;2023-02-19T01:55:45;101807.31;;;8.98;100.00
72116;BME280;59991;52.140;5.428;2023-02-19T01:56:18;101805.72;;;8.97;100.00
72116;BME280;59991;52.140;5.428;2023-02-19T01:56:51;101808.00;;;8.95;100.00
72116;BME280;59991;52.140;5.428;2023-02-19T01:57:27;101801.88;;;8.98;100.00
72116;BME280;59991;52.140;5.428;2023-02-19T01:58:00;101811.97;;;8.98;100.00
72116;BME280;59991;52.140;5.428;2023-02-19T01:58:34;101804.16;;;8.96;100.00
72116;BME280;59991;52.140;5.428;2023-02-19T01:59:07;101808.00;;;8.95;100.00
72116;BME280;59991;52.140;5.428;2023-02-19T01:59:39;101808.78;;;8.96;100.00
72116;BME280;59991;52.140;5.428;2023-02-19T02:00:14;101810.25;;;8.93;100.00
72116;BME280;59991;52.140;5.428;2023-02-19T02:00:45;101811.06;;;8.94;100.00
72116;BME280;59991;52.140;5.428;2023-02-19T02:01:17;101804.38;;;8.91;100.00
72116;BME280;59991;52.140;5.428;2023-02-19T02:01:48;101805.97;;;8.92;100.00
72116;BME280;59991;52.140;5.428;2023-02-19T02:02:21;101808.69;;;8.92;100.00
72116;BME280;59991;52.140;5.428;2023-02-19T02:02:56;101807.09;;;8.91;100.00
72116;BME280;59991;52.140;5.428;2023-02-19T02:03:28;101803.25;;;8.92;100.00
72116;BME280;59991;52.140;5.428;2023-02-19T02:04:01;101802.44;;;8.92;100.00
72116;BME280;59991;52.140;5.428;2023-02-19T02:04:34;101800.97;;;8.94;100.00
72116;BME280;59991;52.140;5.428;2023-02-19T02:05:11;101807.09;;;8.91;100.00
72116;BME280;59991;52.140;5.428;2023-02-19T02:06:02;101811.84;;;8.94;100.00
72116;BME280;59991;52.140;5.428;2023-02-19T02:06:42;101799.38;;;8.93;100.00
72116;BME280;59991;52.140;5.428;2023-02-19T02:07:15;101808.34;;;8.94;100.00
72116;BME280;59991;52.140;5.428;2023-02-19T02:08:06;101805.97;;;8.92;100.00
72116;BME280;59991;52.140;5.428;2023-02-19T02:08:58;101801.66;;;8.91;100.00
72116;BME280;59991;52.140;5.428;2023-02-19T02:09:48;101794.63;;;8.90;100.00
72116;BME280;59991;52.140;5.428;2023-02-19T02:10:50;101807.09;;;8.91;100.00
72116;BME280;59991;52.140;5.428;2023-02-19T02:11:23;101808.69;;;8.92;100.00
72116;BME280;59991;52.140;5.428;2023-02-19T02:11:54;101815.25;;;8.91;100.00
72116;BME280;59991;52.140;5.428;2023-02-19T02:12:26;101808.22;;;8.90;100.00
72116;BME280;59991;52.140;5.428;2023-02-19T02:12:57;101809.00;;;8.91;100.00
72116;BME280;59991;52.140;5.428;2023-02-19T02:13:29;101810.94;;;8.90;100.00
72116;BME280;59991;52.140;5.428;2023-02-19T02:14:03;101811.75;;;8.91;100.00
72116;BME280;59991;52.140;5.428;2023-02-19T02:14:37;101808.22;;;8.90;100.00
72116;BME280;59991;52.140;5.428;2023-02-19T02:15:10;101814.00;;;8.89;100.00
72116;BME280;59991;52.140;5.428;2023-02-19T02:16:44;101803.47;;;8.87;100.00
72116;BME280;59991;52.140;5.428;2023-02-19T02:17:52;101806.19;;;8.87;100.00
72116;BME280;59991;52.140;5.428;2023-02-19T02:18:27;101813.53;;;8.87;100.00
72116;BME280;59991;52.140;5.428;2023-02-19T02:21:05;101810.81;;;8.87;100.00
72116;BME280;59991;52.140;5.428;2023-02-19T02:21:47;101807.69;;;8.85;100.00
72116;BME280;59991;52.140;5.428;2023-02-19T02:24:04;101817.78;;;8.84;100.00
72116;BME280;59991;52.140;5.428;2023-02-19T02:26:34;101821.97;;;8.82;100.00
72116;BME280;59991;52.140;5.428;2023-02-19T02:27:38;101814.94;;;8.81;100.00
72116;BME280;59991;52.140;5.428;2023-02-19T02:30:35;101821.16;;;8.81;100.00
72116;BME280;59991;52.140;5.428;2023-02-19T02:31:16;101822.31;;;8.80;100.00
72116;BME280;59991;52.140;5.428;2023-02-19T02:31:53;101818.00;;;8.79;100.00
72116;BME280;59991;52.140;5.428;2023-02-19T02:32:32;101820.72;;;8.79;100.00
72116;BME280;59991;52.140;5.428;2023-02-19T02:33:46;101816.41;;;8.78;100.00
72116;BME280;59991;52.140;5.428;2023-02-19T02:34:30;101819.13;;;8.78;100.00
72116;BME280;59991;52.140;5.428;2023-02-19T02:35:09;101812.09;;;8.77;100.00
72116;BME280;59991;52.140;5.428;2023-02-19T02:36:24;101816.41;;;8.78;100.00
72116;BME280;59991;52.140;5.428;2023-02-19T02:36:58;101817.53;;;8.77;100.00
72116;BME280;59991;52.140;5.428;2023-02-19T02:37:33;101818.31;;;8.78;100.00
72116;BME280;59991;52.140;5.428;2023-02-19T02:38:08;101815.16;;;8.76;100.00
72116;BME280;59991;52.140;5.428;2023-02-19T02:38:44;101817.06;;;8.75;100.00
72116;BME280;59991;52.140;5.428;2023-02-19T02:39:19;101823.31;;;8.76;100.00
72116;BME280;59991;52.140;5.428;2023-02-19T02:39:52;101821.38;;;8.76;100.00
72116;BME280;59991;52.140;5.428;2023-02-19T02:40:24;101821.38;;;8.76;100.00
72116;BME280;59991;52.140;5.428;2023-02-19T02:40:56;101821.38;;;8.76;100.00
72116;BME280;59991;52.140;5.428;2023-02-19T02:41:27;101814.69;;;8.74;100.00
72116;BME280;59991;52.140;5.428;2023-02-19T02:41:59;101818.22;;;8.74;100.00
72116;BME280;59991;52.140;5.428;2023-02-19T02:42:49;101830.69;;;8.75;100.00
72116;BME280;59991;52.140;5.428;2023-02-19T02:43:20;101820.94;;;8.74;100.00
72116;BME280;59991;52.140;5.428;2023-02-19T02:43:51;101827.63;;;8.77;100.00
72116;BME280;59991;52.140;5.428;2023-02-19T02:44:33;101821.38;;;8.76;100.00
72116;BME280;59991;52.140;5.428;2023-02-19T02:46:10;101834.53;;;8.74;100.00
72116;BME280;59991;52.140;5.428;2023-02-19T02:46:43;101823.66;;;8.74;100.00
72116;BME280;59991;52.140;5.428;2023-02-19T02:47:15;101829.09;;;8.74;100.00
72116;BME280;59991;52.140;5.428;2023-02-19T02:48:48;101829.09;;;8.74;100.00
72116;BME280;59991;52.140;5.428;2023-02-19T02:49:24;101826.72;;;8.73;100.00
72116;BME280;59991;52.140;5.428;2023-02-19T02:49:57;101828.28;;;8.74;100.00
72116;BME280;59991;52.140;5.428;2023-02-19T02:51:34;101840.75;;;8.75;100.00
72116;BME280;59991;52.140;5.428;2023-02-19T02:52:08;101831.81;;;8.74;100.00
72116;BME280;59991;52.140;5.428;2023-02-19T02:53:08;101831.81;;;8.74;100.00
72116;BME280;59991;52.140;5.428;2023-02-19T02:54:16;101838.84;;;8.75;100.00
72116;BME280;59991;52.140;5.428;2023-02-19T02:55:09;101841.56;;;8.75;100.00
72116;BME280;59991;52.140;5.428;2023-02-19T02:55:43;101831.00;;;8.74;100.00
72116;BME280;59991;52.140;5.428;2023-02-19T02:56:16;101830.22;;;8.73;100.00
72116;BME280;59991;52.140;5.428;2023-02-19T02:56:49;101837.25;;;8.74;100.00
72116;BME280;59991;52.140;5.428;2023-02-19T02:57:21;101834.53;;;8.74;100.00
72116;BME280;59991;52.140;5.428;2023-02-19T02:57:53;101839.16;;;8.74;100.00
72116;BME280;59991;52.140;5.428;2023-02-19T02:58:25;101826.25;;;8.71;100.00
72116;BME280;59991;52.140;5.428;2023-02-19T02:59:00;101833.72;;;8.74;100.00
72116;BME280;59991;52.140;5.428;2023-02-19T02:59:36;101830.22;;;8.73;100.00
72116;BME280;59991;52.140;5.428;2023-02-19T03:00:09;101828.28;;;8.74;100.00
72116;BME280;59991;52.140;5.428;2023-02-19T03:00:42;101829.88;;;8.75;100.00
72116;BME280;59991;52.140;5.428;2023-02-19T03:01:38;101835.66;;;8.73;100.00
72116;BME280;59991;52.140;5.428;2023-02-19T03:02:31;101839.50;;;8.72;100.00
72116;BME280;59991;52.140;5.428;2023-02-19T03:03:03;101836.00;;;8.72;100.00
72116;BME280;59991;52.140;5.428;2023-02-19T03:03:38;101835.22;;;8.71;100.00
72116;BME280;59991;52.140;5.428;2023-02-19T03:04:20;101835.53;;;8.70;100.00
72116;BME280;59991;52.140;5.428;2023-02-19T03:05:51;101837.13;;;8.71;100.00
72116;BME280;59991;52.140;5.428;2023-02-19T03:06:27;101831.69;;;8.71;100.00
72116;BME280;59991;52.140;5.428;2023-02-19T03:07:05;101839.38;;;8.69;100.00
72116;BME280;59991;52.140;5.428;2023-02-19T03:07:43;101837.13;;;8.71;100.00
72116;BME280;59991;52.140;5.428;2023-02-19T03:08:30;101839.06;;;8.70;100.00
72116;BME280;59991;52.140;5.428;2023-02-19T03:09:15;101831.22;;;8.69;100.00
72116;BME280;59991;52.140;5.428;2023-02-19T03:09:50;101837.47;;;8.69;100.00
72116;BME280;59991;52.140;5.428;2023-02-19T03:10:27;101835.09;;;8.68;100.00
72116;BME280;59991;52.140;5.428;2023-02-19T03:11:03;101842.91;;;8.69;100.00
72116;BME280;59991;52.140;5.428;2023-02-19T03:11:56;101837.81;;;8.68;100.00
72116;BME280;59991;52.140;5.428;2023-02-19T03:12:49;101834.28;;;8.67;100.00
72116;BME280;59991;52.140;5.428;2023-02-19T03:13:42;101845.16;;;8.67;100.00
72116;BME280;59991;52.140;5.428;2023-02-19T03:14:48;101850.59;;;8.67;100.00
72116;BME280;59991;52.140;5.428;2023-02-19T03:16:01;101847.47;;;8.65;100.00
72116;BME280;59991;52.140;5.428;2023-02-19T03:16:59;101843.56;;;8.66;100.00